Time;durP1;ratioP1;P1;durP2;ratioP2;P2;SDS_P1;SDS_P2;PMS_P1;PMS_P2;Temp;Humidity;BMP_temperature;BMP_pressure;BME280_temperature;BME280_humidity;BME280_pressure;Samples;Min_cycle;Max_cycle;Signal;HPM_P1;HPM_P2
2023/04/05 00:04:56;;;;;;;8.23;2.60;;;;;;;;;;10409811;28;20116;-51
2023/04/05 00:09:56;;;;;;;4.60;2.50;;;;;;;;;;10405647;28;20083;-49
2023/04/05 00:14:57;;;;;;;8.25;2.42;;;;;;;;;;10410812;28;20444;-53
2023/04/05 00:19:58;;;;;;;4.93;2.70;;;;;;;;;;10410537;28;20412;-50
2023/04/05 00:24:58;;;;;;;8.52;2.75;;;;;;;;;;10413823;28;20034;-51
2023/04/05 00:29:59;;;;;;;5.18;2.65;;;;;;;;;;10408552;28;20241;-51
2023/04/05 00:35:00;;;;;;;8.02;3.05;;;;;;;;;;10409382;28;20029;-52
2023/04/05 00:40:01;;;;;;;9.50;2.63;;;;;;;;;;10409484;28;20473;-52
2023/04/05 00:45:01;;;;;;;6.97;2.30;;;;;;;;;;10407798;28;20037;-53
2023/04/05 00:50:02;;;;;;;5.72;2.85;;;;;;;;;;10408311;28;20052;-52
2023/04/05 00:55:06;;;;;;;6.28;2.60;;;;;;;;;;10408355;28;20096;-52
2023/04/05 01:00:10;;;;;;;4.85;2.70;;;;;;;;;;10401586;28;20045;-49
2023/04/05 01:05:39;;;;;;;4.88;2.42;;;;;;;;;;10408037;28;21488;-52
2023/04/05 01:10:47;;;;;;;4.40;2.15;;;;;;;;;;10399009;28;20103;-57
2023/04/05 01:15:47;;;;;;;5.35;2.47;;;;;;;;;;10405601;28;20044;-49
2023/04/05 01:21:19;;;;;;;4.97;2.20;;;;;;;;;;10408107;28;20048;-52
2023/04/05 01:27:07;;;;;;;5.38;2.67;;;;;;;;;;10396101;28;20133;-51
2023/04/05 01:32:48;;;;;;;6.15;2.45;;;;;;;;;;10407154;28;20079;-52
2023/04/05 01:37:56;;;;;;;4.70;2.20;;;;;;;;;;10404363;28;20468;-50
2023/04/05 01:42:56;;;;;;;4.40;2.20;;;;;;;;;;10400811;28;20033;-53
2023/04/05 01:47:57;;;;;;;3.13;1.90;;;;;;;;;;10405416;28;20500;-52
2023/04/05 01:52:57;;;;;;;3.47;2.15;;;;;;;;;;10411952;28;20053;-52
2023/04/05 01:57:58;;;;;;;4.25;1.95;;;;;;;;;;10413931;28;20041;-53
2023/04/05 02:02:59;;;;;;;5.65;2.20;;;;;;;;;;10414732;28;20029;-53
2023/04/05 02:07:59;;;;;;;4.57;2.30;;;;;;;;;;10414907;28;20488;-55
2023/04/05 02:13:00;;;;;;;5.15;2.30;;;;;;;;;;10414100;28;20025;-51
2023/04/05 02:18:03;;;;;;;4.25;1.98;;;;;;;;;;10414669;28;20624;-53
2023/04/05 02:23:04;;;;;;;7.30;2.25;;;;;;;;;;10414018;28;20081;-52
2023/04/05 02:28:04;;;;;;;4.25;2.05;;;;;;;;;;10412755;28;20505;-52
2023/04/05 02:33:05;;;;;;;3.55;2.08;;;;;;;;;;10418716;28;20397;-53
2023/04/05 02:38:06;;;;;;;4.82;2.25;;;;;;;;;;10415171;28;20465;-52
2023/04/05 02:43:07;;;;;;;4.72;2.08;;;;;;;;;;10413716;28;20441;-53
2023/04/05 02:48:07;;;;;;;5.20;2.13;;;;;;;;;;10411623;28;20109;-53
2023/04/05 02:53:08;;;;;;;2.53;1.95;;;;;;;;;;10412519;28;20098;-51
2023/04/05 02:58:08;;;;;;;3.25;1.92;;;;;;;;;;10412900;28;20108;-51
2023/04/05 03:03:09;;;;;;;2.90;1.85;;;;;;;;;;10413160;28;20029;-53
2023/04/05 03:08:17;;;;;;;3.13;1.80;;;;;;;;;;10412451;28;20038;-54
2023/04/05 03:13:17;;;;;;;3.90;1.50;;;;;;;;;;10412197;28;20630;-52
2023/04/05 03:18:19;;;;;;;3.90;1.95;;;;;;;;;;10411376;28;20458;-52
2023/04/05 03:23:20;;;;;;;4.47;1.92;;;;;;;;;;10411885;28;20421;-49
2023/04/05 03:28:22;;;;;;;3.53;1.73;;;;;;;;;;10412315;28;20037;-52
2023/04/05 03:33:23;;;;;;;6.20;3.05;;;;;;;;;;10412744;28;20119;-53
2023/04/05 03:38:23;;;;;;;3.45;1.90;;;;;;;;;;10409823;28;20029;-53
2023/04/05 03:43:24;;;;;;;2.65;1.75;;;;;;;;;;10411431;28;20551;-53
2023/04/05 03:48:25;;;;;;;2.35;1.52;;;;;;;;;;10408717;28;20500;-53
2023/04/05 03:53:28;;;;;;;3.92;2.10;;;;;;;;;;10410489;28;20046;-51
2023/04/05 03:58:29;;;;;;;2.65;1.88;;;;;;;;;;10410837;28;20034;-53
2023/04/05 04:03:29;;;;;;;6.90;2.28;;;;;;;;;;10410741;28;20334;-51
2023/04/05 04:08:30;;;;;;;3.40;1.70;;;;;;;;;;10408189;28;20041;-52
2023/04/05 04:13:31;;;;;;;2.00;1.48;;;;;;;;;;10408606;28;20030;-52
2023/04/05 04:18:31;;;;;;;3.63;1.60;;;;;;;;;;10409743;28;20042;-53
2023/04/05 04:23:38;;;;;;;4.03;1.90;;;;;;;;;;10409832;28;20117;-52
2023/04/05 04:28:42;;;;;;;2.00;1.80;;;;;;;;;;10408990;28;20042;-53
2023/04/05 04:33:43;;;;;;;2.00;1.77;;;;;;;;;;10410094;28;20030;-52
2023/04/05 04:38:43;;;;;;;1.73;1.60;;;;;;;;;;10412691;28;20095;-53
2023/04/05 04:43:44;;;;;;;2.28;1.63;;;;;;;;;;10409740;28;20026;-52
2023/04/05 04:48:46;;;;;;;2.55;1.58;;;;;;;;;;10401339;28;20385;-52
2023/04/05 04:53:46;;;;;;;2.42;1.48;;;;;;;;;;10409064;28;20045;-53
2023/04/05 04:58:47;;;;;;;8.95;1.73;;;;;;;;;;10408420;28;20462;-51
2023/04/05 05:03:48;;;;;;;3.80;1.45;;;;;;;;;;10406289;28;20017;-54
2023/04/05 05:08:50;;;;;;;13.32;2.42;;;;;;;;;;10418981;23;20057;-52
2023/04/05 05:13:51;;;;;;;6.38;2.38;;;;;;;;;;10406515;28;20108;-55
2023/04/05 05:18:52;;;;;;;6.57;2.15;;;;;;;;;;10416492;28;20088;-57
2023/04/05 05:23:53;;;;;;;4.47;1.63;;;;;;;;;;10406860;28;20025;-58
2023/04/05 05:28:53;;;;;;;3.83;2.10;;;;;;;;;;10407087;28;20021;-58
2023/04/05 05:33:54;;;;;;;9.48;2.20;;;;;;;;;;10407216;28;20461;-57
2023/04/05 05:38:54;;;;;;;3.50;1.85;;;;;;;;;;10408939;28;20444;-58
2023/04/05 05:43:55;;;;;;;3.55;1.90;;;;;;;;;;10396742;28;20025;-57
2023/04/05 05:48:56;;;;;;;6.88;2.00;;;;;;;;;;10407563;28;20026;-57
2023/04/05 05:53:56;;;;;;;6.38;2.50;;;;;;;;;;10408646;28;20083;-58
2023/04/05 05:58:58;;;;;;;6.68;2.20;;;;;;;;;;10408139;28;20026;-59
2023/04/05 06:03:59;;;;;;;4.68;2.35;;;;;;;;;;10401980;28;20124;-58
2023/04/05 06:09:01;;;;;;;5.97;1.73;;;;;;;;;;10384775;28;20049;-57
2023/04/05 06:14:02;;;;;;;25.98;3.45;;;;;;;;;;10405163;28;20416;-58
2023/04/05 06:19:02;;;;;;;10.45;2.45;;;;;;;;;;10401990;28;20432;-57
2023/04/05 06:24:03;;;;;;;9.65;2.70;;;;;;;;;;10406215;28;20513;-58
2023/04/05 06:29:05;;;;;;;8.55;2.20;;;;;;;;;;10406813;28;20423;-57
2023/04/05 06:34:05;;;;;;;13.15;2.58;;;;;;;;;;10405994;28;20088;-74
2023/04/05 06:39:06;;;;;;;5.63;2.20;;;;;;;;;;10413560;28;20036;-57
2023/04/05 06:44:07;;;;;;;6.68;2.55;;;;;;;;;;10415405;28;20090;-57
2023/04/05 06:49:08;;;;;;;3.80;2.08;;;;;;;;;;10412950;28;20486;-58
2023/04/05 06:54:09;;;;;;;5.38;2.60;;;;;;;;;;10414640;28;20048;-59
2023/04/05 06:59:10;;;;;;;7.82;2.10;;;;;;;;;;10414311;28;20025;-57
2023/04/05 07:04:11;;;;;;;6.30;2.30;;;;;;;;;;10414302;28;20025;-58
2023/04/05 07:09:12;;;;;;;8.32;2.35;;;;;;;;;;10413311;28;20475;-60
2023/04/05 07:14:12;;;;;;;7.20;2.80;;;;;;;;;;10413944;28;20095;-73
2023/04/05 07:19:13;;;;;;;5.95;2.70;;;;;;;;;;10414331;28;20029;-58
2023/04/05 07:24:14;;;;;;;9.95;2.95;;;;;;;;;;10413552;28;20029;-57
2023/04/05 07:29:14;;;;;;;5.05;2.17;;;;;;;;;;10414252;28;20049;-58
2023/04/05 07:34:15;;;;;;;15.57;3.15;;;;;;;;;;10414310;28;20377;-58
2023/04/05 07:39:16;;;;;;;6.65;2.65;;;;;;;;;;10416437;28;20021;-57
2023/04/05 07:44:16;;;;;;;5.30;2.00;;;;;;;;;;10412273;28;20030;-58
2023/04/05 07:49:17;;;;;;;3.95;2.15;;;;;;;;;;10409717;28;20447;-60
2023/04/05 07:54:17;;;;;;;6.85;2.20;;;;;;;;;;10412380;28;20547;-58
2023/04/05 07:59:18;;;;;;;6.05;2.30;;;;;;;;;;10411817;28;20493;-62
2023/04/05 08:04:19;;;;;;;4.40;2.33;;;;;;;;;;10410914;28;20037;-57
2023/04/05 08:09:20;;;;;;;4.20;2.17;;;;;;;;;;10411953;28;20049;-72
2023/04/05 08:14:21;;;;;;;4.72;2.25;;;;;;;;;;10411749;28;20022;-58
2023/04/05 08:19:21;;;;;;;6.30;2.35;;;;;;;;;;10410753;28;20034;-57
2023/04/05 08:24:22;;;;;;;5.07;2.42;;;;;;;;;;10410847;28;20021;-70
2023/04/05 08:29:22;;;;;;;4.90;2.20;;;;;;;;;;10410488;28;20021;-58
2023/04/05 08:34:23;;;;;;;5.25;2.13;;;;;;;;;;10411438;28;20485;-58
2023/04/05 08:39:24;;;;;;;4.30;2.17;;;;;;;;;;10417017;28;20163;-58
2023/04/05 08:44:27;;;;;;;2.88;1.90;;;;;;;;;;10410370;28;20021;-61
2023/04/05 08:49:28;;;;;;;5.65;2.17;;;;;;;;;;10408175;28;20056;-58
2023/04/05 08:54:29;;;;;;;4.15;1.90;;;;;;;;;;10410557;28;20032;-58
2023/04/05 08:59:31;;;;;;;4.30;2.47;;;;;;;;;;10410503;28;20091;-58
2023/04/05 09:04:38;;;;;;;7.03;2.42;;;;;;;;;;10409348;28;20034;-58
2023/04/05 09:09:45;;;;;;;4.93;2.25;;;;;;;;;;10407142;28;20076;-58
2023/04/05 09:14:48;;;;;;;5.45;2.25;;;;;;;;;;10407111;28;20666;-58
2023/04/05 09:19:49;;;;;;;3.05;2.13;;;;;;;;;;10409239;28;20040;-60
2023/04/05 09:24:49;;;;;;;4.43;2.20;;;;;;;;;;10408792;28;20048;-57
2023/04/05 09:29:50;;;;;;;3.58;2.05;;;;;;;;;;10408141;28;20428;-57
2023/04/05 09:34:52;;;;;;;2.83;1.95;;;;;;;;;;10409592;28;20022;-58
2023/04/05 09:40:03;;;;;;;4.40;2.30;;;;;;;;;;10410922;28;20026;-57
2023/04/05 09:45:06;;;;;;;3.80;2.10;;;;;;;;;;10408660;28;20370;-58
2023/04/05 09:50:15;;;;;;;4.00;2.28;;;;;;;;;;10408097;28;20032;-58
2023/04/05 09:55:26;;;;;;;3.22;2.38;;;;;;;;;;10408987;28;20033;-58
2023/04/05 10:00:29;;;;;;;2.90;2.25;;;;;;;;;;10408940;28;20029;-72
2023/04/05 10:05:31;;;;;;;2.83;1.95;;;;;;;;;;10408252;28;20064;-57
2023/04/05 10:10:43;;;;;;;3.60;2.35;;;;;;;;;;10407236;28;20041;-57
2023/04/05 10:15:46;;;;;;;3.53;2.10;;;;;;;;;;10414091;28;20060;-62
2023/04/05 10:20:50;;;;;;;3.47;2.05;;;;;;;;;;10414407;28;20025;-58
2023/04/05 10:25:50;;;;;;;3.60;2.08;;;;;;;;;;10415056;28;20052;-58
2023/04/05 10:31:03;;;;;;;2.30;1.90;;;;;;;;;;10414914;28;20026;-70
2023/04/05 10:36:18;;;;;;;3.42;2.30;;;;;;;;;;10417998;28;20022;-57
2023/04/05 10:41:19;;;;;;;4.75;2.10;;;;;;;;;;10415230;28;20025;-58
2023/04/05 10:46:20;;;;;;;7.43;2.65;;;;;;;;;;10415359;28;20493;-58
2023/04/05 10:51:25;;;;;;;3.72;2.75;;;;;;;;;;10412877;28;20037;-58
2023/04/05 10:56:26;;;;;;;2.63;2.15;;;;;;;;;;10408905;28;20033;-57
2023/04/05 11:01:27;;;;;;;3.33;2.03;;;;;;;;;;10412797;28;20511;-67
2023/04/05 11:06:28;;;;;;;3.17;2.13;;;;;;;;;;10412438;28;20477;-57
2023/04/05 11:11:38;;;;;;;3.53;2.10;;;;;;;;;;10412350;28;20068;-58
2023/04/05 11:16:39;;;;;;;5.05;1.80;;;;;;;;;;10411088;28;20595;-57
2023/04/05 11:21:40;;;;;;;2.60;2.35;;;;;;;;;;10412124;28;20063;-68
2023/04/05 11:26:46;;;;;;;4.63;2.10;;;;;;;;;;10411317;28;20022;-61
2023/04/05 11:32:05;;;;;;;3.80;2.20;;;;;;;;;;10406835;28;20026;-58
2023/04/05 11:37:06;;;;;;;3.67;2.03;;;;;;;;;;10410297;28;20038;-58
2023/04/05 11:42:13;;;;;;;3.08;2.35;;;;;;;;;;10413042;28;20033;-58
2023/04/05 11:47:20;;;;;;;2.75;2.20;;;;;;;;;;10397608;28;20136;-73
2023/04/05 11:52:21;;;;;;;2.47;2.05;;;;;;;;;;10409639;28;20048;-63
2023/04/05 11:57:23;;;;;;;2.35;2.05;;;;;;;;;;10409875;28;20025;-58
2023/04/05 12:02:25;;;;;;;2.47;2.08;;;;;;;;;;10391928;28;20389;-70
2023/04/05 12:07:28;;;;;;;3.15;1.95;;;;;;;;;;10400220;28;20453;-58
2023/04/05 12:12:37;;;;;;;3.40;2.28;;;;;;;;;;10402391;28;20034;-67
2023/04/05 12:17:48;;;;;;;3.03;2.53;;;;;;;;;;10409829;28;20131;-68
2023/04/05 12:22:54;;;;;;;3.25;2.50;;;;;;;;;;10409623;28;20460;-75
2023/04/05 12:27:54;;;;;;;2.95;2.10;;;;;;;;;;10400592;28;20389;-58
2023/04/05 12:32:56;;;;;;;3.47;2.60;;;;;;;;;;10408926;28;20033;-62
2023/04/05 12:37:58;;;;;;;3.15;2.28;;;;;;;;;;10407887;28;20338;-64
2023/04/05 12:43:07;;;;;;;2.75;2.20;;;;;;;;;;10390940;28;20524;-57
2023/04/05 12:48:13;;;;;;;2.83;2.25;;;;;;;;;;10403410;28;20389;-60
2023/04/05 12:53:32;;;;;;;4.22;2.42;;;;;;;;;;10403790;28;20033;-67
2023/04/05 12:58:35;;;;;;;3.28;2.50;;;;;;;;;;10394012;28;20398;-62
2023/04/05 13:03:35;;;;;;;4.15;2.05;;;;;;;;;;10398146;28;20025;-58
2023/04/05 13:08:36;;;;;;;5.22;2.45;;;;;;;;;;10396396;28;20054;-58
2023/04/05 13:13:36;;;;;;;4.40;2.30;;;;;;;;;;10380986;28;20410;-61
2023/04/05 13:18:37;;;;;;;5.15;2.22;;;;;;;;;;10385759;28;20478;-56
2023/04/05 13:23:39;;;;;;;6.88;2.50;;;;;;;;;;10392017;28;20026;-58
2023/04/05 13:28:39;;;;;;;2.65;2.17;;;;;;;;;;10398551;28;20025;-58
2023/04/05 13:33:40;;;;;;;5.60;2.47;;;;;;;;;;10406615;28;20025;-57
2023/04/05 13:38:41;;;;;;;4.95;2.08;;;;;;;;;;10403853;28;20033;-57
2023/04/05 13:43:41;;;;;;;6.25;2.30;;;;;;;;;;10394517;28;20026;-64
2023/04/05 13:48:42;;;;;;;4.63;2.53;;;;;;;;;;10404179;28;20481;-63
2023/04/05 13:53:42;;;;;;;5.93;2.20;;;;;;;;;;10404989;28;20037;-57
2023/04/05 13:58:43;;;;;;;3.83;2.50;;;;;;;;;;10407169;28;20098;-56
2023/04/05 14:03:44;;;;;;;4.35;2.50;;;;;;;;;;10413820;28;20017;-58
2023/04/05 14:08:44;;;;;;;6.78;2.20;;;;;;;;;;10413104;28;20056;-58
2023/04/05 14:13:46;;;;;;;3.30;2.15;;;;;;;;;;10411985;28;20030;-60
2023/04/05 14:18:46;;;;;;;4.93;2.40;;;;;;;;;;10410656;28;20037;-74
2023/04/05 14:23:49;;;;;;;3.60;2.40;;;;;;;;;;10410681;28;20025;-59
2023/04/05 14:28:49;;;;;;;4.15;2.22;;;;;;;;;;10411644;28;20095;-58
2023/04/05 14:33:51;;;;;;;4.38;2.17;;;;;;;;;;10413427;28;20076;-63
2023/04/05 14:38:51;;;;;;;2.90;2.30;;;;;;;;;;10406876;28;20116;-58
2023/04/05 14:43:53;;;;;;;6.35;2.30;;;;;;;;;;10401054;28;20041;-63
2023/04/05 14:48:53;;;;;;;6.15;2.50;;;;;;;;;;10410958;28;20056;-57
2023/04/05 14:53:54;;;;;;;4.25;2.20;;;;;;;;;;10403700;28;20481;-58
2023/04/05 14:58:55;;;;;;;2.83;2.13;;;;;;;;;;10411680;28;20124;-62
2023/04/05 15:03:56;;;;;;;4.72;2.10;;;;;;;;;;10405214;28;20491;-58
2023/04/05 15:08:56;;;;;;;2.67;2.13;;;;;;;;;;10402413;28;20049;-67
2023/04/05 15:13:57;;;;;;;5.63;2.50;;;;;;;;;;10410721;28;20026;-58
2023/04/05 15:18:58;;;;;;;4.03;2.28;;;;;;;;;;10412710;28;20033;-58
2023/04/05 15:24:00;;;;;;;7.07;2.22;;;;;;;;;;10411712;28;20377;-58
2023/04/05 15:29:01;;;;;;;5.90;2.38;;;;;;;;;;10411780;28;20087;-69
2023/04/05 15:34:02;;;;;;;4.43;2.17;;;;;;;;;;10410869;28;20029;-58
2023/04/05 15:39:03;;;;;;;6.47;2.58;;;;;;;;;;10416529;28;20121;-58
2023/04/05 15:44:04;;;;;;;3.70;2.40;;;;;;;;;;10406777;28;20033;-58
2023/04/05 15:49:05;;;;;;;5.03;2.50;;;;;;;;;;10409357;28;20026;-58
2023/04/05 15:54:06;;;;;;;5.65;2.22;;;;;;;;;;10399176;28;20149;-58
2023/04/05 15:59:06;;;;;;;3.65;2.20;;;;;;;;;;10393017;28;20037;-58
2023/04/05 16:04:07;;;;;;;4.47;2.30;;;;;;;;;;10410177;28;20026;-58
2023/04/05 16:09:08;;;;;;;5.75;2.35;;;;;;;;;;10406173;28;20057;-58
2023/04/05 16:14:09;;;;;;;3.63;2.30;;;;;;;;;;10407373;28;20497;-63
2023/04/05 16:19:09;;;;;;;2.00;1.80;;;;;;;;;;10400390;28;20116;-58
2023/04/05 16:24:10;;;;;;;4.53;2.60;;;;;;;;;;10393808;28;20029;-58
2023/04/05 16:29:11;;;;;;;3.97;2.25;;;;;;;;;;10402868;28;20037;-59
2023/04/05 16:34:12;;;;;;;9.10;2.33;;;;;;;;;;10404439;28;20025;-58
2023/04/05 16:39:13;;;;;;;5.13;2.42;;;;;;;;;;10410613;28;20409;-58
2023/04/05 16:44:14;;;;;;;2.30;2.10;;;;;;;;;;10410273;28;20029;-63
2023/04/05 16:49:14;;;;;;;4.22;2.30;;;;;;;;;;10408597;28;20180;-58
2023/04/05 16:54:15;;;;;;;2.97;2.03;;;;;;;;;;10408506;28;20388;-58
2023/04/05 16:59:16;;;;;;;3.30;2.03;;;;;;;;;;10410625;28;20048;-59
2023/04/05 17:04:17;;;;;;;5.53;2.00;;;;;;;;;;10403934;28;20393;-58
2023/04/05 17:09:18;;;;;;;4.80;2.20;;;;;;;;;;10404078;28;20045;-58
2023/04/05 17:14:19;;;;;;;2.90;2.00;;;;;;;;;;10397973;28;20397;-58
2023/04/05 17:19:19;;;;;;;3.30;2.17;;;;;;;;;;10406900;28;20071;-58
2023/04/05 17:24:20;;;;;;;4.22;2.20;;;;;;;;;;10406888;28;20048;-58
2023/04/05 17:29:20;;;;;;;3.97;2.20;;;;;;;;;;10406849;28;20063;-58
2023/04/05 17:34:22;;;;;;;2.13;1.60;;;;;;;;;;10398332;28;20502;-58
2023/04/05 17:39:22;;;;;;;4.65;2.10;;;;;;;;;;10407740;28;20477;-58
2023/04/05 17:44:23;;;;;;;4.55;2.30;;;;;;;;;;10406960;28;20033;-58
2023/04/05 17:49:23;;;;;;;7.90;2.50;;;;;;;;;;10399298;28;20029;-57
2023/04/05 17:54:24;;;;;;;15.05;3.17;;;;;;;;;;10379806;28;20032;-57
2023/04/05 17:59:24;;;;;;;6.15;2.17;;;;;;;;;;10401315;28;20041;-58
2023/04/05 18:04:25;;;;;;;11.10;2.72;;;;;;;;;;10406478;28;20192;-59
2023/04/05 18:09:27;;;;;;;9.20;2.63;;;;;;;;;;10406398;28;20057;-58
2023/04/05 18:14:29;;;;;;;8.20;2.78;;;;;;;;;;10406162;28;20389;-57
2023/04/05 18:19:29;;;;;;;6.13;2.80;;;;;;;;;;10406721;28;20492;-57
2023/04/05 18:24:30;;;;;;;10.40;2.40;;;;;;;;;;10396277;28;20029;-53
2023/04/05 18:29:36;;;;;;;8.77;2.90;;;;;;;;;;10406623;28;20466;-54
2023/04/05 18:34:37;;;;;;;8.13;2.45;;;;;;;;;;10404178;28;20044;-61
2023/04/05 18:39:37;;;;;;;6.25;2.53;;;;;;;;;;10419098;28;20028;-56
2023/04/05 18:44:38;;;;;;;8.07;2.65;;;;;;;;;;10415410;28;20025;-55
2023/04/05 18:49:39;;;;;;;4.55;2.03;;;;;;;;;;10413669;28;20068;-55
2023/04/05 18:54:40;;;;;;;5.78;2.47;;;;;;;;;;10415582;28;20029;-56
2023/04/05 18:59:40;;;;;;;3.22;2.30;;;;;;;;;;10413598;28;20029;-56
2023/04/05 19:04:41;;;;;;;3.38;2.10;;;;;;;;;;10414424;28;20076;-52
2023/04/05 19:09:41;;;;;;;8.40;2.50;;;;;;;;;;10413956;28;20409;-55
2023/04/05 19:14:42;;;;;;;5.13;2.50;;;;;;;;;;10414459;28;20029;-53
2023/04/05 19:19:43;;;;;;;3.47;2.30;;;;;;;;;;10413236;28;20432;-54
2023/04/05 19:24:43;;;;;;;3.03;1.90;;;;;;;;;;10413435;28;20029;-54
2023/04/05 19:29:44;;;;;;;5.90;2.40;;;;;;;;;;10413522;28;20021;-55
2023/04/05 19:34:44;;;;;;;3.28;2.22;;;;;;;;;;10413064;28;20030;-51
2023/04/05 19:39:47;;;;;;;4.82;2.05;;;;;;;;;;10414979;28;20025;-55
2023/04/05 19:44:59;;;;;;;4.35;2.20;;;;;;;;;;10413312;28;20036;-54
2023/04/05 19:50:00;;;;;;;3.63;2.30;;;;;;;;;;10411030;28;20060;-52
2023/04/05 19:55:26;;;;;;;2.88;2.17;;;;;;;;;;10413748;28;20112;-55
2023/04/05 20:00:51;;;;;;;3.17;2.20;;;;;;;;;;10411798;28;20049;-55
2023/04/05 20:06:01;;;;;;;5.70;2.60;;;;;;;;;;10412114;28;20029;-69
2023/04/05 20:11:08;;;;;;;4.30;2.20;;;;;;;;;;10410473;28;20076;-55
2023/04/05 20:16:11;;;;;;;4.07;2.33;;;;;;;;;;10400056;28;20573;-54
2023/04/05 20:21:12;;;;;;;6.57;2.30;;;;;;;;;;10411790;28;20471;-55
2023/04/05 20:26:15;;;;;;;3.15;2.00;;;;;;;;;;10411692;28;20069;-56
2023/04/05 20:31:19;;;;;;;3.75;1.88;;;;;;;;;;10410955;28;20057;-55
2023/04/05 20:36:31;;;;;;;4.07;1.88;;;;;;;;;;10414522;28;20029;-56
2023/04/05 20:41:32;;;;;;;2.92;2.38;;;;;;;;;;10409321;28;20056;-52
2023/04/05 20:46:33;;;;;;;2.58;2.38;;;;;;;;;;10410376;28;20108;-53
2023/04/05 20:51:33;;;;;;;3.90;2.17;;;;;;;;;;10410583;28;20121;-56
2023/04/05 20:56:34;;;;;;;4.78;2.35;;;;;;;;;;10410251;28;20029;-55
2023/04/05 21:01:36;;;;;;;2.72;1.90;;;;;;;;;;10410336;28;20530;-51
2023/04/05 21:06:38;;;;;;;4.47;2.50;;;;;;;;;;10407679;28;20028;-54
2023/04/05 21:11:39;;;;;;;3.40;2.42;;;;;;;;;;10409276;28;20069;-56
2023/04/05 21:16:39;;;;;;;3.45;2.33;;;;;;;;;;10409275;28;20420;-53
2023/04/05 21:21:40;;;;;;;3.78;2.28;;;;;;;;;;10408036;28;20030;-56
2023/04/05 21:26:40;;;;;;;5.07;2.40;;;;;;;;;;10409504;28;20033;-55
2023/04/05 21:31:41;;;;;;;3.72;2.33;;;;;;;;;;10386264;28;20017;-55
2023/04/05 21:36:41;;;;;;;3.55;2.60;;;;;;;;;;10384238;28;20109;-55
2023/04/05 21:41:42;;;;;;;3.95;2.40;;;;;;;;;;10387287;28;20409;-55
2023/04/05 21:46:43;;;;;;;3.97;2.45;;;;;;;;;;10397498;28;20022;-54
2023/04/05 21:51:43;;;;;;;7.18;2.20;;;;;;;;;;10406772;28;20340;-53
2023/04/05 21:56:44;;;;;;;2.47;2.10;;;;;;;;;;10406818;28;20029;-56
2023/04/05 22:01:45;;;;;;;3.03;2.10;;;;;;;;;;10405629;28;20367;-56
2023/04/05 22:06:46;;;;;;;3.92;2.55;;;;;;;;;;10406029;28;21147;-56
2023/04/05 22:11:49;;;;;;;7.28;2.40;;;;;;;;;;10411924;28;20057;-55
2023/04/05 22:16:50;;;;;;;5.68;2.50;;;;;;;;;;10400805;28;20029;-57
2023/04/05 22:21:53;;;;;;;5.85;2.78;;;;;;;;;;10411471;28;20481;-57
2023/04/05 22:26:57;;;;;;;5.32;2.60;;;;;;;;;;10414120;28;20029;-55
2023/04/05 22:31:58;;;;;;;5.85;2.72;;;;;;;;;;10414457;28;20469;-56
2023/04/05 22:36:59;;;;;;;2.75;2.35;;;;;;;;;;10418944;28;20032;-55
2023/04/05 22:42:00;;;;;;;4.90;2.72;;;;;;;;;;10415057;28;20124;-56
2023/04/05 22:47:01;;;;;;;3.78;2.38;;;;;;;;;;10413588;28;20025;-55
2023/04/05 22:52:01;;;;;;;5.18;2.67;;;;;;;;;;10414344;28;20508;-62
2023/04/05 22:57:02;;;;;;;8.50;2.63;;;;;;;;;;10413884;28;20457;-55
2023/04/05 23:02:03;;;;;;;4.88;2.90;;;;;;;;;;10415915;28;20029;-56
2023/04/05 23:07:03;;;;;;;4.65;3.00;;;;;;;;;;10407690;28;20034;-54
2023/04/05 23:12:04;;;;;;;3.17;2.47;;;;;;;;;;10403842;28;20042;-57
2023/04/05 23:17:05;;;;;;;5.20;2.53;;;;;;;;;;10382636;28;20105;-55
2023/04/05 23:22:12;;;;;;;6.30;2.63;;;;;;;;;;10380322;28;20042;-53
2023/04/05 23:27:13;;;;;;;4.03;2.58;;;;;;;;;;10388580;28;20370;-54
2023/04/05 23:32:14;;;;;;;6.75;2.88;;;;;;;;;;10379943;28;20030;-55
2023/04/05 23:37:15;;;;;;;3.10;2.35;;;;;;;;;;10387189;28;20469;-56
2023/04/05 23:42:16;;;;;;;7.00;3.10;;;;;;;;;;10378200;28;20021;-56
2023/04/05 23:47:16;;;;;;;2.90;2.50;;;;;;;;;;10380048;28;20053;-54
2023/04/05 23:52:17;;;;;;;4.43;2.70;;;;;;;;;;10376831;28;20080;-55
2023/04/05 23:57:18;;;;;;;5.53;2.67;;;;;;;;;;10378280;28;20033;-53
